Time;durP1;ratioP1;P1;durP2;ratioP2;P2;SDS_P1;SDS_P2;PMS_P1;PMS_P2;Temp;Humidity;BMP_temperature;BMP_pressure;BME280_temperature;BME280_humidity;BME280_pressure;Samples;Min_cycle;Max_cycle;Signal;HPM_P1;HPM_P2
2023/06/21 00:01:00;;;;;;;12.33;10.03;;;20.60;99.90;;;;;;4989671;28;20315;-75
2023/06/21 00:03:29;;;;;;;11.83;10.27;;;20.60;99.90;;;;;;4988777;28;20209;-76
2023/06/21 00:05:55;;;;;;;10.17;9.13;;;20.50;99.90;;;;;;4986029;28;20214;-76
2023/06/21 00:08:22;;;;;;;10.57;9.57;;;20.50;99.90;;;;;;4989233;28;20252;-77
2023/06/21 00:10:50;;;;;;;10.60;9.50;;;20.50;99.90;;;;;;4987934;28;20225;-77
2023/06/21 00:13:16;;;;;;;11.23;10.13;;;20.50;99.90;;;;;;4990995;28;20198;-76
2023/06/21 00:15:43;;;;;;;11.77;10.53;;;20.50;99.90;;;;;;4992230;28;20212;-77
2023/06/21 00:18:10;;;;;;;12.03;10.73;;;20.40;99.90;;;;;;4989156;28;20280;-76
2023/06/21 00:20:38;;;;;;;11.50;10.40;;;20.30;99.90;;;;;;4987374;28;20804;-77
2023/06/21 00:23:08;;;;;;;12.00;10.27;;;20.30;99.90;;;;;;4978997;28;20201;-76
2023/06/21 00:25:35;;;;;;;14.03;10.77;;;20.20;99.90;;;;;;4984716;28;20216;-76
2023/06/21 00:28:02;;;;;;;12.57;10.73;;;20.20;99.90;;;;;;4974823;28;20208;-77
2023/06/21 00:30:29;;;;;;;14.13;10.70;;;20.10;99.90;;;;;;5021038;28;20708;-76
2023/06/21 00:32:56;;;;;;;13.60;10.83;;;20.10;99.90;;;;;;4992315;28;20351;-76
2023/06/21 00:35:23;;;;;;;13.50;10.27;;;20.10;99.90;;;;;;4988162;28;20219;-76
2023/06/21 00:37:51;;;;;;;12.70;10.80;;;20.00;99.90;;;;;;4980291;28;20229;-76
2023/06/21 00:40:22;;;;;;;11.60;10.47;;;20.00;99.90;;;;;;4989379;28;20227;-76
2023/06/21 00:42:48;;;;;;;12.70;10.70;;;20.00;99.90;;;;;;4988821;28;20619;-76
2023/06/21 00:45:16;;;;;;;11.07;9.97;;;20.00;99.90;;;;;;4987844;28;20201;-76
2023/06/21 00:47:45;;;;;;;11.63;10.43;;;20.00;99.90;;;;;;4985748;28;20242;-77
2023/06/21 00:50:12;;;;;;;12.17;10.70;;;19.90;99.90;;;;;;4983997;28;20231;-77
2023/06/21 00:52:40;;;;;;;12.20;11.10;;;19.90;99.90;;;;;;4989439;28;20211;-76
2023/06/21 00:55:09;;;;;;;15.17;10.70;;;19.80;99.90;;;;;;4985733;28;20243;-76
2023/06/21 00:57:37;;;;;;;12.00;10.80;;;19.80;99.90;;;;;;4979767;28;20229;-76
2023/06/21 01:00:05;;;;;;;12.83;10.67;;;19.80;99.90;;;;;;4987999;28;20197;-76
2023/06/21 01:02:35;;;;;;;11.13;9.87;;;19.80;99.90;;;;;;4989470;28;20193;-77
2023/06/21 01:05:04;;;;;;;11.10;9.97;;;19.80;99.90;;;;;;4985468;28;20672;-76
2023/06/21 01:07:50;;;;;;;11.67;10.40;;;19.80;99.90;;;;;;4982379;28;20278;-76
2023/06/21 01:10:42;;;;;;;18.07;9.90;;;19.80;99.90;;;;;;4977605;28;20217;-76
2023/06/21 01:13:21;;;;;;;12.50;10.20;;;19.80;99.90;;;;;;4992631;28;20205;-76
2023/06/21 01:15:53;;;;;;;13.43;11.10;;;19.70;99.90;;;;;;4994990;28;20213;-79
2023/06/21 01:18:23;;;;;;;16.00;10.70;;;19.70;99.90;;;;;;4992226;28;20330;-77
2023/06/21 01:20:54;;;;;;;13.63;10.90;;;19.60;99.90;;;;;;4979007;28;20226;-78
2023/06/21 01:23:40;;;;;;;14.07;10.73;;;19.60;99.90;;;;;;4979024;28;20198;-77
2023/06/21 01:26:12;;;;;;;11.53;10.10;;;19.60;99.90;;;;;;4976704;28;20205;-77
2023/06/21 01:28:50;;;;;;;11.73;10.63;;;19.60;99.90;;;;;;4973582;28;20704;-76
2023/06/21 01:31:18;;;;;;;14.07;10.43;;;19.50;99.90;;;;;;4988540;28;20217;-76
2023/06/21 01:33:46;;;;;;;12.23;10.93;;;19.50;99.90;;;;;;4990912;28;20216;-78
2023/06/21 01:36:13;;;;;;;12.47;10.53;;;19.50;99.90;;;;;;4991790;28;20190;-77
2023/06/21 01:38:40;;;;;;;12.43;11.23;;;19.40;99.90;;;;;;4985526;28;20216;-76
2023/06/21 01:41:10;;;;;;;13.03;10.60;;;19.40;99.90;;;;;;4979604;28;20280;-76
2023/06/21 01:43:38;;;;;;;12.87;10.30;;;19.40;99.90;;;;;;4991428;28;20730;-76
2023/06/21 01:46:07;;;;;;;16.17;11.33;;;19.40;99.90;;;;;;5019178;28;20207;-77
2023/06/21 01:48:35;;;;;;;13.10;11.50;;;19.30;99.90;;;;;;4990363;28;20897;-77
2023/06/21 01:51:04;;;;;;;11.47;10.33;;;19.30;99.90;;;;;;4991344;28;20264;-78
2023/06/21 01:53:35;;;;;;;15.03;11.53;;;19.30;99.90;;;;;;5026659;28;20240;-79
2023/06/21 01:56:05;;;;;;;14.23;12.17;;;19.30;99.90;;;;;;4991684;28;20252;-79
2023/06/21 01:58:33;;;;;;;15.70;11.90;;;19.30;99.90;;;;;;4985528;28;20216;-76
2023/06/21 02:01:03;;;;;;;14.63;11.53;;;19.30;99.90;;;;;;4994516;28;20316;-78
2023/06/21 02:03:33;;;;;;;13.27;11.07;;;19.20;99.90;;;;;;4993851;28;20207;-78
2023/06/21 02:06:03;;;;;;;13.87;12.40;;;19.20;99.90;;;;;;4990328;28;20207;-79
2023/06/21 02:08:32;;;;;;;14.10;12.00;;;19.20;99.90;;;;;;4984692;28;20204;-77
2023/06/21 02:11:00;;;;;;;14.03;11.13;;;19.20;99.90;;;;;;4989722;28;20259;-76
2023/06/21 02:13:27;;;;;;;12.00;10.80;;;19.20;99.90;;;;;;4988728;28;20214;-78
2023/06/21 02:15:54;;;;;;;12.80;11.60;;;19.20;99.90;;;;;;4988511;28;20228;-79
2023/06/21 02:18:22;;;;;;;13.23;11.80;;;19.10;99.90;;;;;;4993531;28;20208;-78
2023/06/21 02:20:49;;;;;;;13.57;11.47;;;19.10;99.90;;;;;;4988329;28;20646;-77
2023/06/21 02:23:17;;;;;;;12.97;11.60;;;19.10;99.90;;;;;;4995477;28;20593;-78
2023/06/21 02:25:44;;;;;;;14.40;11.93;;;19.10;99.90;;;;;;4987644;28;20235;-78
2023/06/21 02:28:11;;;;;;;12.40;11.20;;;19.10;99.90;;;;;;4988170;28;20287;-77
2023/06/21 02:30:38;;;;;;;12.40;11.10;;;19.10;99.90;;;;;;4990379;28;20228;-77
2023/06/21 02:33:05;;;;;;;12.70;11.43;;;19.10;99.90;;;;;;4990960;28;20658;-77
2023/06/21 02:35:32;;;;;;;13.10;11.93;;;19.10;99.90;;;;;;4991720;28;20208;-76
2023/06/21 02:37:59;;;;;;;13.30;11.90;;;19.00;99.90;;;;;;4985525;28;20216;-79
2023/06/21 02:40:27;;;;;;;13.53;12.30;;;19.00;99.90;;;;;;4991069;28;20630;-77
2023/06/21 02:42:54;;;;;;;12.90;11.80;;;19.00;99.90;;;;;;4992854;28;20216;-77
2023/06/21 02:45:21;;;;;;;13.37;12.07;;;19.00;99.90;;;;;;4991596;28;20267;-79
2023/06/21 02:47:47;;;;;;;13.97;12.67;;;19.00;99.90;;;;;;4994225;28;20219;-78
2023/06/21 02:50:16;;;;;;;13.60;12.20;;;19.00;99.90;;;;;;4991382;28;20223;-78
2023/06/21 02:52:43;;;;;;;13.07;11.87;;;19.00;99.90;;;;;;4975795;28;20568;-80
2023/06/21 02:55:10;;;;;;;14.10;12.77;;;19.00;99.90;;;;;;4988381;28;20215;-79
2023/06/21 02:57:38;;;;;;;13.57;12.20;;;19.00;99.90;;;;;;4982799;28;20198;-77
2023/06/21 03:00:17;;;;;;;13.13;12.03;;;18.90;99.90;;;;;;4972911;28;20212;-77
2023/06/21 03:02:44;;;;;;;14.97;13.77;;;18.90;99.90;;;;;;5008439;28;20204;-76
2023/06/21 03:05:12;;;;;;;15.27;13.73;;;18.90;99.90;;;;;;4965421;28;20514;-77
2023/06/21 03:07:43;;;;;;;14.37;12.97;;;18.90;99.90;;;;;;4975062;28;20263;-77
2023/06/21 03:10:11;;;;;;;14.37;13.00;;;18.80;99.90;;;;;;4968491;28;20315;-77
2023/06/21 03:12:40;;;;;;;16.13;14.60;;;18.90;99.90;;;;;;4976009;28;20231;-78
2023/06/21 03:15:09;;;;;;;15.30;14.00;;;18.80;99.90;;;;;;4979377;28;20271;-78
2023/06/21 03:17:36;;;;;;;14.93;13.53;;;18.80;99.90;;;;;;4990965;28;20208;-77
2023/06/21 03:20:08;;;;;;;14.57;13.17;;;18.90;99.90;;;;;;4989821;28;20239;-78
2023/06/21 03:22:35;;;;;;;14.27;13.07;;;18.90;99.90;;;;;;5022515;28;20235;-77
2023/06/21 03:25:03;;;;;;;13.50;12.40;;;19.00;99.90;;;;;;4989452;28;20691;-78
2023/06/21 03:27:30;;;;;;;12.23;11.03;;;19.00;99.90;;;;;;4991636;28;20201;-77
2023/06/21 03:29:59;;;;;;;13.03;11.97;;;19.10;99.90;;;;;;4987019;28;20244;-78
2023/06/21 03:32:25;;;;;;;12.67;11.67;;;19.20;99.90;;;;;;4999573;28;20198;-77
2023/06/21 03:34:52;;;;;;;12.20;11.20;;;19.20;99.90;;;;;;4982160;28;20209;-78
2023/06/21 03:37:19;;;;;;;13.23;12.23;;;19.30;99.90;;;;;;4980118;28;20213;-77
2023/06/21 03:39:46;;;;;;;12.47;11.47;;;19.40;99.90;;;;;;4987761;28;20192;-75
2023/06/21 03:42:13;;;;;;;12.77;11.67;;;19.40;99.90;;;;;;4986265;28;20269;-77
2023/06/21 03:44:40;;;;;;;13.93;12.70;;;19.50;99.90;;;;;;5029138;28;20298;-78
2023/06/21 03:47:10;;;;;;;13.40;12.27;;;19.60;99.90;;;;;;5027325;28;20210;-77
2023/06/21 03:49:37;;;;;;;12.30;11.20;;;19.60;99.90;;;;;;4992202;28;20215;-77
2023/06/21 03:52:05;;;;;;;11.90;10.87;;;19.70;99.90;;;;;;5027761;28;20278;-77
2023/06/21 03:54:32;;;;;;;12.30;11.20;;;19.70;99.90;;;;;;5027582;28;20207;-78
2023/06/21 03:56:59;;;;;;;13.10;11.90;;;19.70;99.90;;;;;;4993438;28;20209;-77
2023/06/21 03:59:26;;;;;;;12.27;11.27;;;19.70;99.90;;;;;;4984536;28;20207;-78
2023/06/21 04:01:53;;;;;;;12.73;11.63;;;19.70;99.90;;;;;;4996627;28;20256;-78
2023/06/21 04:04:23;;;;;;;12.80;11.70;;;19.70;99.90;;;;;;5025069;28;20923;-77
2023/06/21 04:06:51;;;;;;;12.70;11.47;;;19.70;99.90;;;;;;4992701;28;20210;-78
2023/06/21 04:09:18;;;;;;;12.00;10.93;;;19.80;99.90;;;;;;4991152;28;20189;-78
2023/06/21 04:11:45;;;;;;;12.57;11.27;;;19.80;99.90;;;;;;4993811;28;20235;-77
2023/06/21 04:14:14;;;;;;;11.53;10.53;;;19.80;99.90;;;;;;5016449;28;20292;-78
2023/06/21 04:16:41;;;;;;;12.30;11.27;;;19.80;99.90;;;;;;4995200;28;20201;-77
2023/06/21 04:19:08;;;;;;;11.67;10.63;;;19.80;99.90;;;;;;4995132;28;20690;-79
2023/06/21 04:21:36;;;;;;;11.03;10.10;;;19.90;99.90;;;;;;4984738;28;20271;-78
2023/06/21 04:24:03;;;;;;;11.90;10.70;;;19.90;99.90;;;;;;4990451;28;20207;-78
2023/06/21 04:26:29;;;;;;;11.87;10.83;;;19.90;99.90;;;;;;4990318;28;20763;-78
2023/06/21 04:29:01;;;;;;;11.80;10.70;;;19.80;99.90;;;;;;4986632;28;20197;-76
2023/06/21 04:31:28;;;;;;;12.43;11.30;;;19.80;99.90;;;;;;4987953;28;20229;-77
2023/06/21 04:33:55;;;;;;;14.00;12.10;;;19.90;99.90;;;;;;4980472;28;20724;-81
2023/06/21 04:36:23;;;;;;;13.07;11.53;;;19.90;99.90;;;;;;4975695;28;20300;-76
2023/06/21 04:38:51;;;;;;;13.07;11.87;;;20.00;99.90;;;;;;4973273;28;20236;-76
2023/06/21 04:41:19;;;;;;;12.73;11.47;;;20.00;99.90;;;;;;4982293;28;20270;-76
2023/06/21 04:43:46;;;;;;;13.90;11.30;;;20.00;99.90;;;;;;4979837;28;20260;-76
2023/06/21 04:46:13;;;;;;;11.73;10.57;;;20.10;99.90;;;;;;5009268;28;20636;-77
2023/06/21 04:48:40;;;;;;;14.30;11.13;;;20.20;99.90;;;;;;4973966;28;20230;-76
2023/06/21 04:51:07;;;;;;;13.53;11.17;;;20.20;99.90;;;;;;4979324;28;20268;-77
2023/06/21 04:53:34;;;;;;;11.53;10.43;;;20.20;99.90;;;;;;4975629;28;20202;-77
2023/06/21 04:56:02;;;;;;;13.13;10.30;;;20.30;99.90;;;;;;4977647;28;20911;-78
2023/06/21 04:58:35;;;;;;;12.10;10.87;;;20.40;99.90;;;;;;4975730;28;20194;-76
2023/06/21 05:01:02;;;;;;;12.40;10.17;;;20.40;99.90;;;;;;4976300;28;20631;-82
2023/06/21 05:03:29;;;;;;;12.70;10.10;;;20.50;99.90;;;;;;4977007;28;20202;-76
2023/06/21 05:05:55;;;;;;;10.50;9.50;;;20.50;99.90;;;;;;4975405;28;20201;-77
2023/06/21 05:08:22;;;;;;;11.33;10.23;;;20.60;99.90;;;;;;4975469;28;20198;-76
2023/06/21 05:10:49;;;;;;;10.60;9.60;;;20.70;99.90;;;;;;4974657;28;20226;-76
2023/06/21 05:13:17;;;;;;;11.37;10.33;;;20.80;99.90;;;;;;4971469;28;20232;-77
2023/06/21 05:15:44;;;;;;;11.37;9.63;;;21.00;99.90;;;;;;4982258;28;20732;-77
2023/06/21 05:18:11;;;;;;;14.23;12.87;;;21.20;99.90;;;;;;4974505;28;20610;-77
2023/06/21 05:20:38;;;;;;;11.77;10.57;;;21.30;99.90;;;;;;4976229;28;20239;-76
2023/06/21 05:23:05;;;;;;;13.03;11.43;;;21.40;99.90;;;;;;4976954;28;20205;-77
2023/06/21 05:25:31;;;;;;;14.57;13.27;;;21.40;99.90;;;;;;4982390;28;20241;-78
2023/06/21 05:27:58;;;;;;;9.87;8.87;;;21.60;99.90;;;;;;4983997;28;20206;-80
2023/06/21 05:30:26;;;;;;;10.23;8.97;;;21.70;99.90;;;;;;4988714;28;20229;-78
2023/06/21 05:32:53;;;;;;;14.23;13.03;;;21.80;99.90;;;;;;4982271;28;20260;-78
2023/06/21 05:35:20;;;;;;;13.43;9.43;;;21.90;99.90;;;;;;4984472;28;20266;-77
2023/06/21 05:37:47;;;;;;;12.77;11.77;;;22.00;99.90;;;;;;4976138;28;20455;-78
2023/06/21 05:40:14;;;;;;;9.70;8.90;;;22.10;99.90;;;;;;4976021;28;20221;-78
2023/06/21 05:42:40;;;;;;;9.93;8.90;;;22.30;99.90;;;;;;4980723;28;20250;-80
2023/06/21 05:45:09;;;;;;;11.27;9.40;;;22.40;99.90;;;;;;4977753;28;20202;-77
2023/06/21 05:47:38;;;;;;;12.30;11.10;;;22.40;99.90;;;;;;4973831;28;20609;-77
2023/06/21 05:50:05;;;;;;;12.50;11.20;;;22.60;99.90;;;;;;4976549;28;20276;-78
2023/06/21 05:52:32;;;;;;;10.50;9.37;;;22.70;99.90;;;;;;4977800;28;20237;-80
2023/06/21 05:54:59;;;;;;;10.90;9.90;;;22.90;99.90;;;;;;4977273;28;20194;-78
2023/06/21 05:57:26;;;;;;;13.70;12.50;;;23.10;99.90;;;;;;5007998;28;20278;-78
2023/06/21 05:59:53;;;;;;;14.00;13.00;;;23.40;99.90;;;;;;4977806;28;20198;-78
2023/06/21 06:02:20;;;;;;;10.80;8.53;;;23.80;99.90;;;;;;4970367;28;20233;-80
2023/06/21 06:04:48;;;;;;;11.97;10.77;;;24.00;99.90;;;;;;4978274;28;20209;-78
2023/06/21 06:07:15;;;;;;;14.00;10.43;;;24.00;99.90;;;;;;5009404;28;20205;-77
2023/06/21 06:09:42;;;;;;;12.60;11.40;;;23.80;99.90;;;;;;4979435;28;20695;-78
2023/06/21 06:12:09;;;;;;;10.47;9.43;;;23.80;99.90;;;;;;4977683;28;20738;-78
2023/06/21 06:14:36;;;;;;;14.77;13.27;;;24.10;99.90;;;;;;4980397;28;20661;-77
2023/06/21 06:17:03;;;;;;;12.80;11.50;;;24.40;99.90;;;;;;4977198;28;20703;-79
2023/06/21 06:19:30;;;;;;;14.07;12.80;;;24.60;99.90;;;;;;4977474;28;20205;-80
2023/06/21 06:21:58;;;;;;;12.90;11.70;;;25.20;99.90;;;;;;4981732;28;20681;-78
2023/06/21 06:24:25;;;;;;;15.50;13.87;;;25.40;99.90;;;;;;4975296;28;20219;-76
2023/06/21 06:26:52;;;;;;;15.90;14.23;;;25.70;99.90;;;;;;4977834;28;20210;-82
2023/06/21 06:29:19;;;;;;;16.30;14.60;;;26.00;99.90;;;;;;4978043;28;20225;-76
2023/06/21 06:31:45;;;;;;;15.40;12.63;;;26.50;99.90;;;;;;4986208;28;20229;-78
2023/06/21 06:34:12;;;;;;;15.07;13.60;;;27.00;99.90;;;;;;4975267;28;20269;-77
2023/06/21 06:36:39;;;;;;;16.40;13.00;;;27.30;99.90;;;;;;4983318;28;20202;-76
2023/06/21 06:39:07;;;;;;;13.20;11.90;;;27.50;99.90;;;;;;4972905;28;20229;-75
2023/06/21 06:41:34;;;;;;;11.03;9.10;;;27.70;99.90;;;;;;4969698;28;20338;-76
2023/06/21 06:44:05;;;;;;;10.30;9.30;;;27.80;99.90;;;;;;5004731;28;20225;-76
2023/06/21 06:46:32;;;;;;;14.97;12.83;;;27.80;99.90;;;;;;4979323;28;20209;-76
2023/06/21 06:48:58;;;;;;;14.93;13.50;;;27.40;99.90;;;;;;4972333;28;20285;-76
2023/06/21 06:51:25;;;;;;;13.43;11.70;;;27.10;99.90;;;;;;4972438;28;20273;-76
2023/06/21 06:53:52;;;;;;;13.93;12.40;;;27.30;99.90;;;;;;4972641;28;20697;-76
2023/06/21 06:56:20;;;;;;;17.60;12.10;;;27.40;99.90;;;;;;4971097;28;20198;-76
2023/06/21 06:58:47;;;;;;;17.60;12.17;;;27.60;99.90;;;;;;4972287;28;20202;-76
2023/06/21 07:01:15;;;;;;;12.60;11.50;;;27.40;99.90;;;;;;4971002;28;20226;-76
2023/06/21 07:03:41;;;;;;;12.67;11.53;;;27.40;99.90;;;;;;4970851;28;20205;-75
2023/06/21 07:06:08;;;;;;;12.93;11.73;;;27.70;99.90;;;;;;4971906;28;20194;-76
2023/06/21 07:08:35;;;;;;;14.23;12.40;;;28.00;99.90;;;;;;4971013;28;20209;-76
2023/06/21 07:11:02;;;;;;;12.37;11.17;;;28.00;99.90;;;;;;4972174;28;20593;-76
2023/06/21 07:13:30;;;;;;;13.27;10.87;;;28.20;99.90;;;;;;5003574;28;20272;-76
2023/06/21 07:15:59;;;;;;;12.90;11.63;;;28.30;99.90;;;;;;4968904;28;20668;-76
2023/06/21 07:18:26;;;;;;;12.47;11.43;;;28.80;99.90;;;;;;4972174;28;20569;-76
2023/06/21 07:20:54;;;;;;;11.27;9.87;;;28.90;99.90;;;;;;4971782;28;20704;-76
2023/06/21 07:23:20;;;;;;;13.00;9.90;;;29.10;99.90;;;;;;5003486;28;20202;-76
2023/06/21 07:25:47;;;;;;;11.97;10.97;;;29.30;99.90;;;;;;4973160;28;20194;-76
2023/06/21 07:28:14;;;;;;;13.07;11.70;;;29.20;99.90;;;;;;4973612;28;20329;-77
2023/06/21 07:30:42;;;;;;;12.87;11.67;;;28.90;99.90;;;;;;4971365;28;20280;-76
2023/06/21 07:33:09;;;;;;;13.20;11.20;;;28.80;99.90;;;;;;4972753;28;20192;-77
2023/06/21 07:35:36;;;;;;;13.33;11.97;;;28.90;99.90;;;;;;4971288;28;20235;-77
2023/06/21 07:38:05;;;;;;;12.17;11.07;;;29.00;99.90;;;;;;4968873;28;20198;-77
2023/06/21 07:40:32;;;;;;;11.80;10.70;;;29.20;99.90;;;;;;4971920;28;20220;-77
2023/06/21 07:42:59;;;;;;;12.80;11.60;;;29.40;99.90;;;;;;4973599;28;20252;-76
2023/06/21 07:45:26;;;;;;;11.63;10.53;;;29.60;99.90;;;;;;4964485;28;20272;-77
2023/06/21 07:47:54;;;;;;;15.43;12.20;;;29.50;99.90;;;;;;4975013;28;20296;-76
2023/06/21 07:50:23;;;;;;;12.10;10.80;;;29.50;99.90;;;;;;4971644;28;20221;-76
2023/06/21 07:52:50;;;;;;;12.53;11.30;;;29.40;99.90;;;;;;4972162;28;20206;-76
2023/06/21 07:55:17;;;;;;;12.73;10.77;;;29.20;99.90;;;;;;4970856;28;20201;-76
2023/06/21 07:57:44;;;;;;;12.90;11.57;;;29.00;99.90;;;;;;4975733;28;20665;-80
2023/06/21 08:00:12;;;;;;;12.93;11.70;;;28.80;99.90;;;;;;4978336;28;20217;-76
2023/06/21 08:02:45;;;;;;;12.50;11.23;;;28.60;99.90;;;;;;4971381;28;20194;-76
2023/06/21 08:05:14;;;;;;;11.83;10.67;;;28.70;99.90;;;;;;4972774;28;20581;-77
2023/06/21 08:07:41;;;;;;;13.70;11.03;;;28.70;99.90;;;;;;4972227;28;20197;-78
2023/06/21 08:10:09;;;;;;;11.70;10.50;;;28.60;99.90;;;;;;4973573;28;20229;-77
2023/06/21 08:12:36;;;;;;;13.10;11.83;;;28.40;99.90;;;;;;4972067;28;20681;-76
2023/06/21 08:15:03;;;;;;;12.17;10.37;;;28.00;99.90;;;;;;4973744;28;20218;-76
2023/06/21 08:17:30;;;;;;;11.37;10.27;;;27.60;99.90;;;;;;4975439;28;20190;-76
2023/06/21 08:19:58;;;;;;;11.30;10.20;;;27.10;99.90;;;;;;4978339;28;20612;-76
2023/06/21 08:22:27;;;;;;;13.20;9.97;;;26.70;99.90;;;;;;4976092;28;20202;-78
2023/06/21 08:24:56;;;;;;;10.97;9.63;;;26.30;99.90;;;;;;4976603;28;20197;-78
2023/06/21 08:27:23;;;;;;;11.00;9.20;;;26.00;99.90;;;;;;4976048;28;20225;-78
2023/06/21 08:29:49;;;;;;;13.97;11.17;;;25.70;99.90;;;;;;4975656;28;20651;-78
2023/06/21 08:32:17;;;;;;;11.30;10.40;;;25.40;99.90;;;;;;4974973;28;20225;-77
2023/06/21 08:34:44;;;;;;;14.63;10.47;;;25.20;99.90;;;;;;4976583;28;20237;-79
2023/06/21 08:37:10;;;;;;;17.07;13.17;;;25.00;99.90;;;;;;4975016;28;20209;-78
2023/06/21 08:39:38;;;;;;;14.50;13.30;;;24.80;99.90;;;;;;4974263;28;20229;-76
2023/06/21 08:42:06;;;;;;;14.43;13.20;;;24.60;99.90;;;;;;4975368;28;20232;-78
2023/06/21 08:44:33;;;;;;;22.57;15.50;;;24.40;99.90;;;;;;4974840;28;20202;-76
2023/06/21 08:47:03;;;;;;;15.73;14.07;;;24.00;99.90;;;;;;4975048;28;20221;-76
2023/06/21 08:49:34;;;;;;;14.30;12.80;;;23.40;99.90;;;;;;4973212;28;20244;-76
2023/06/21 08:52:03;;;;;;;13.50;12.10;;;22.80;99.90;;;;;;4974966;28;20218;-76
2023/06/21 08:54:32;;;;;;;13.80;12.50;;;22.30;99.90;;;;;;4974504;28;20194;-78
2023/06/21 08:57:07;;;;;;;15.17;13.57;;;21.80;99.90;;;;;;4974755;28;20236;-79
2023/06/21 08:59:39;;;;;;;14.97;13.63;;;21.50;99.90;;;;;;4971980;28;20197;-78
2023/06/21 09:02:16;;;;;;;15.93;14.23;;;21.30;99.90;;;;;;4979786;28;20214;-79
2023/06/21 09:04:46;;;;;;;15.73;14.20;;;21.20;99.90;;;;;;4972480;28;20198;-78
2023/06/21 09:07:13;;;;;;;15.33;13.83;;;21.10;99.90;;;;;;4988894;28;20193;-78
2023/06/21 09:09:42;;;;;;;13.90;12.80;;;21.10;99.90;;;;;;4994661;28;20197;-77
2023/06/21 09:12:13;;;;;;;15.10;13.60;;;21.00;99.90;;;;;;4993143;28;20237;-79
2023/06/21 09:14:41;;;;;;;14.53;13.17;;;20.90;99.90;;;;;;4992789;28;20186;-78
2023/06/21 09:17:08;;;;;;;14.20;12.90;;;20.90;99.90;;;;;;4995734;28;20255;-77
2023/06/21 09:19:36;;;;;;;13.93;12.67;;;20.80;99.90;;;;;;4980565;28;20206;-79
2023/06/21 09:22:03;;;;;;;14.97;13.50;;;20.80;99.90;;;;;;4978243;28;20233;-77
2023/06/21 09:24:30;;;;;;;14.90;13.33;;;20.70;99.90;;;;;;4982992;28;20264;-80
2023/06/21 09:26:56;;;;;;;15.53;14.00;;;20.60;99.90;;;;;;5006220;28;20640;-80
2023/06/21 09:29:25;;;;;;;14.37;13.17;;;20.60;99.90;;;;;;4978223;28;20655;-80
2023/06/21 09:31:51;;;;;;;13.93;12.63;;;20.60;99.90;;;;;;4979764;28;20217;-79
2023/06/21 09:34:18;;;;;;;15.33;13.03;;;20.60;99.90;;;;;;4978722;28;20198;-81
2023/06/21 09:36:45;;;;;;;17.20;13.20;;;20.50;99.90;;;;;;4979458;28;20206;-78
2023/06/21 09:39:12;;;;;;;13.27;12.17;;;20.50;99.90;;;;;;4979738;28;20210;-79
2023/06/21 09:41:41;;;;;;;13.63;12.00;;;20.40;99.90;;;;;;4979252;28;20218;-79
2023/06/21 09:44:08;;;;;;;12.40;10.50;;;20.40;99.90;;;;;;4978330;28;20229;-78
2023/06/21 09:46:36;;;;;;;14.10;10.60;;;20.30;99.90;;;;;;4978212;28;20205;-79
2023/06/21 09:49:08;;;;;;;12.33;10.43;;;20.20;99.90;;;;;;4981721;28;20628;-76
2023/06/21 09:51:41;;;;;;;10.83;9.77;;;20.10;99.90;;;;;;4980530;28;20245;-79
2023/06/21 09:54:08;;;;;;;10.77;9.70;;;20.00;99.90;;;;;;4990052;28;20252;-80
2023/06/21 09:56:37;;;;;;;11.93;9.83;;;19.90;99.90;;;;;;4992115;28;20197;-78
2023/06/21 09:59:04;;;;;;;11.60;10.30;;;19.90;99.90;;;;;;4989545;28;20201;-78
2023/06/21 10:01:39;;;;;;;12.13;10.80;;;19.90;99.90;;;;;;4988642;28;20213;-79
2023/06/21 10:04:14;;;;;;;11.57;10.50;;;19.80;99.90;;;;;;4990280;28;20634;-79
2023/06/21 10:06:49;;;;;;;10.33;9.33;;;19.90;99.90;;;;;;4970769;28;20626;-79
2023/06/21 10:09:16;;;;;;;9.90;7.10;;;19.90;99.90;;;;;;4980882;28;20278;-78
2023/06/21 10:11:44;;;;;;;9.77;8.50;;;19.80;99.90;;;;;;5021462;28;20220;-77
2023/06/21 10:14:19;;;;;;;12.60;9.63;;;19.80;99.90;;;;;;4989969;28;20638;-79
2023/06/21 10:16:50;;;;;;;10.63;9.73;;;19.90;99.90;;;;;;5021624;28;20633;-76
2023/06/21 10:19:18;;;;;;;11.00;8.00;;;19.90;99.90;;;;;;4987212;28;20197;-79
2023/06/21 10:21:45;;;;;;;10.83;8.40;;;19.90;99.90;;;;;;4990270;28;20268;-76
2023/06/21 10:24:14;;;;;;;8.70;7.80;;;20.00;99.90;;;;;;4991045;28;20193;-76
2023/06/21 10:26:44;;;;;;;10.90;9.80;;;20.10;99.90;;;;;;4980729;28;20853;-77
2023/06/21 10:29:13;;;;;;;16.07;9.57;;;20.10;99.90;;;;;;4973635;28;20579;-77
2023/06/21 10:31:44;;;;;;;11.20;9.80;;;20.30;99.90;;;;;;4980044;28;20233;-77
2023/06/21 10:34:19;;;;;;;9.57;5.70;;;20.50;99.90;;;;;;4978682;28;20205;-77
2023/06/21 10:36:48;;;;;;;11.93;9.33;;;20.70;99.90;;;;;;4968070;28;20240;-76
2023/06/21 10:39:16;;;;;;;8.23;5.37;;;20.80;99.90;;;;;;4971395;28;20212;-76
2023/06/21 10:41:44;;;;;;;10.27;7.27;;;21.00;99.90;;;;;;4975477;28;20213;-78
2023/06/21 10:44:12;;;;;;;9.50;8.17;;;21.20;99.90;;;;;;4980664;28;20625;-78
2023/06/21 10:46:41;;;;;;;10.73;7.03;;;21.30;99.90;;;;;;4978612;28;20210;-77
2023/06/21 10:49:08;;;;;;;10.13;8.27;;;21.50;99.90;;;;;;4979588;28;20209;-77
2023/06/21 10:51:40;;;;;;;11.10;6.90;;;21.70;99.90;;;;;;4983019;28;20466;-78
2023/06/21 10:54:08;;;;;;;8.90;7.47;;;21.90;99.90;;;;;;4980086;28;20276;-78
2023/06/21 10:56:36;;;;;;;13.73;7.70;;;22.20;99.90;;;;;;4986609;28;20248;-76
2023/06/21 10:59:03;;;;;;;12.83;7.37;;;22.40;99.90;;;;;;4980165;28;20205;-79
2023/06/21 11:01:30;;;;;;;11.17;6.70;;;22.90;99.90;;;;;;4981485;28;20249;-77
2023/06/21 11:03:57;;;;;;;15.73;7.40;;;23.10;99.90;;;;;;4982824;28;20197;-79
2023/06/21 11:06:28;;;;;;;13.00;8.00;;;23.30;99.90;;;;;;4978817;28;20217;-79
2023/06/21 11:08:57;;;;;;;10.77;6.20;;;23.70;99.90;;;;;;4982795;28;20242;-79
2023/06/21 11:11:29;;;;;;;11.03;8.30;;;24.00;99.90;;;;;;4982727;28;20226;-78
2023/06/21 11:13:56;;;;;;;14.50;6.33;;;24.10;99.90;;;;;;4982154;28;20201;-78
2023/06/21 11:16:26;;;;;;;9.00;4.90;;;24.30;99.90;;;;;;4981012;28;20202;-78
2023/06/21 11:18:57;;;;;;;10.43;4.60;;;24.70;99.90;;;;;;4988587;28;20498;-78
2023/06/21 11:21:40;;;;;;;10.33;5.50;;;25.00;99.90;;;;;;4983886;28;20226;-78
2023/06/21 11:24:10;;;;;;;12.77;5.53;;;25.20;99.90;;;;;;4982647;28;20202;-80
2023/06/21 11:26:54;;;;;;;8.53;4.10;;;25.10;99.90;;;;;;4985761;28;20292;-80
2023/06/21 11:29:21;;;;;;;9.60;5.40;;;25.10;99.90;;;;;;5015988;28;20724;-77
2023/06/21 11:31:48;;;;;;;10.63;7.10;;;25.30;99.90;;;;;;4990069;28;20213;-80
2023/06/21 11:34:24;;;;;;;9.03;4.63;;;25.60;99.90;;;;;;4982219;28;20206;-80
2023/06/21 11:36:51;;;;;;;8.50;4.33;;;25.80;99.90;;;;;;4982012;28;20609;-79
2023/06/21 11:39:26;;;;;;;8.07;7.17;;;26.00;99.90;;;;;;4982391;28;20222;-79
2023/06/21 11:42:02;;;;;;;10.33;8.07;;;26.00;99.90;;;;;;4980162;28;20223;-78
2023/06/21 11:44:33;;;;;;;7.87;7.17;;;26.00;99.90;;;;;;4977704;28;20209;-79
2023/06/21 11:47:18;;;;;;;8.77;7.37;;;26.20;99.90;;;;;;4977250;28;20202;-81
2023/06/21 11:49:56;;;;;;;6.97;4.27;;;26.40;99.90;;;;;;4979195;28;20202;-80
2023/06/21 11:52:25;;;;;;;9.33;6.10;;;26.00;99.90;;;;;;4978688;28;20260;-80
2023/06/21 11:54:53;;;;;;;8.10;6.30;;;25.70;99.90;;;;;;5009303;28;20198;-80
2023/06/21 11:57:20;;;;;;;7.47;6.23;;;25.70;99.90;;;;;;4979107;28;20232;-80
2023/06/21 11:59:47;;;;;;;7.83;4.80;;;25.70;99.90;;;;;;4990382;28;20204;-80
2023/06/21 12:02:15;;;;;;;6.43;5.77;;;25.50;99.90;;;;;;4991778;28;20218;-78
2023/06/21 12:04:42;;;;;;;6.37;3.90;;;25.50;99.90;;;;;;5027433;28;20228;-76
2023/06/21 12:07:10;;;;;;;7.23;4.47;;;25.60;99.90;;;;;;4993389;28;20256;-78
2023/06/21 12:09:38;;;;;;;4.67;4.10;;;25.90;99.90;;;;;;4990089;28;20202;-80
2023/06/21 12:12:08;;;;;;;6.17;4.23;;;26.10;99.90;;;;;;4990754;28;20213;-77
2023/06/21 12:14:35;;;;;;;6.80;5.70;;;26.20;99.90;;;;;;4988669;28;20251;-77
2023/06/21 12:17:02;;;;;;;6.40;3.83;;;26.10;99.90;;;;;;4993397;28;20292;-77
2023/06/21 12:19:31;;;;;;;6.87;4.47;;;26.10;99.90;;;;;;4990773;28;20258;-76
2023/06/21 12:22:02;;;;;;;7.23;4.40;;;26.00;99.90;;;;;;4984950;28;20233;-77
2023/06/21 12:24:29;;;;;;;7.10;4.43;;;26.00;99.90;;;;;;4993538;28;20224;-78
2023/06/21 12:26:58;;;;;;;5.77;4.80;;;26.00;99.90;;;;;;4990739;28;20665;-78
2023/06/21 12:29:27;;;;;;;6.60;5.43;;;25.80;99.90;;;;;;5025689;28;20201;-77
2023/06/21 12:31:56;;;;;;;5.17;4.13;;;25.90;99.90;;;;;;4986627;28;20228;-79
2023/06/21 12:34:23;;;;;;;4.90;3.83;;;26.00;99.90;;;;;;4989880;28;20204;-80
2023/06/21 12:36:51;;;;;;;5.77;4.50;;;26.10;99.90;;;;;;4994404;28;20206;-79